sensor_id;sensor_type;location;lat;lon;timestamp;P1;durP1;ratioP1;P2;durP2;ratioP2
35126;SDS011;21300;52.006;5.798;2022-09-03T00:01:37;2.35;;;1.13;;
35126;SDS011;21300;52.006;5.798;2022-09-03T00:04:04;3.22;;;1.35;;
35126;SDS011;21300;52.006;5.798;2022-09-03T00:06:48;5.35;;;1.50;;
35126;SDS011;21300;52.006;5.798;2022-09-03T00:09:24;4.10;;;1.33;;
35126;SDS011;21300;52.006;5.798;2022-09-03T00:14:41;3.47;;;1.30;;
35126;SDS011;21300;52.006;5.798;2022-09-03T00:17:23;3.15;;;1.10;;
35126;SDS011;21300;52.006;5.798;2022-09-03T00:19:55;2.83;;;1.02;;
35126;SDS011;21300;52.006;5.798;2022-09-03T00:22:31;3.05;;;1.10;;
35126;SDS011;21300;52.006;5.798;2022-09-03T00:27:28;2.22;;;1.10;;
35126;SDS011;21300;52.006;5.798;2022-09-03T00:30:00;2.42;;;1.38;;
35126;SDS011;21300;52.006;5.798;2022-09-03T00:35:10;4.28;;;1.60;;
35126;SDS011;21300;52.006;5.798;2022-09-03T00:37:41;3.27;;;1.00;;
35126;SDS011;21300;52.006;5.798;2022-09-03T00:40:10;3.28;;;1.30;;
35126;SDS011;21300;52.006;5.798;2022-09-03T00:42:54;2.97;;;1.40;;
35126;SDS011;21300;52.006;5.798;2022-09-03T00:45:33;2.95;;;1.00;;
35126;SDS011;21300;52.006;5.798;2022-09-03T00:48:21;2.97;;;1.10;;
35126;SDS011;21300;52.006;5.798;2022-09-03T00:56:18;2.90;;;1.30;;
35126;SDS011;21300;52.006;5.798;2022-09-03T01:01:47;1.90;;;1.30;;
35126;SDS011;21300;52.006;5.798;2022-09-03T01:04:27;3.05;;;1.40;;
35126;SDS011;21300;52.006;5.798;2022-09-03T01:15:20;3.03;;;1.20;;
35126;SDS011;21300;52.006;5.798;2022-09-03T01:17:57;4.20;;;1.50;;
35126;SDS011;21300;52.006;5.798;2022-09-03T01:20:37;4.05;;;1.17;;
35126;SDS011;21300;52.006;5.798;2022-09-03T01:26:26;2.35;;;1.00;;
35126;SDS011;21300;52.006;5.798;2022-09-03T01:29:11;6.43;;;1.80;;
35126;SDS011;21300;52.006;5.798;2022-09-03T01:31:55;2.07;;;1.10;;
35126;SDS011;21300;52.006;5.798;2022-09-03T01:42:58;3.85;;;1.42;;
35126;SDS011;21300;52.006;5.798;2022-09-03T01:51:19;2.42;;;1.20;;
35126;SDS011;21300;52.006;5.798;2022-09-03T02:02:24;2.20;;;1.40;;
35126;SDS011;21300;52.006;5.798;2022-09-03T02:04:56;4.53;;;1.35;;
35126;SDS011;21300;52.006;5.798;2022-09-03T02:07:26;4.43;;;1.33;;
35126;SDS011;21300;52.006;5.798;2022-09-03T02:10:00;3.33;;;1.52;;
35126;SDS011;21300;52.006;5.798;2022-09-03T02:12:28;4.80;;;1.35;;
35126;SDS011;21300;52.006;5.798;2022-09-03T02:14:57;2.05;;;1.25;;
35126;SDS011;21300;52.006;5.798;2022-09-03T02:17:27;2.80;;;1.27;;
35126;SDS011;21300;52.006;5.798;2022-09-03T02:19:53;3.00;;;1.17;;
35126;SDS011;21300;52.006;5.798;2022-09-03T02:22:19;2.25;;;1.27;;
35126;SDS011;21300;52.006;5.798;2022-09-03T02:24:44;1.40;;;1.00;;
35126;SDS011;21300;52.006;5.798;2022-09-03T02:27:10;2.70;;;1.40;;
35126;SDS011;21300;52.006;5.798;2022-09-03T02:29:36;2.80;;;1.23;;
35126;SDS011;21300;52.006;5.798;2022-09-03T02:32:01;1.92;;;1.00;;
35126;SDS011;21300;52.006;5.798;2022-09-03T02:34:27;1.95;;;0.90;;
35126;SDS011;21300;52.006;5.798;2022-09-03T02:36:54;2.28;;;1.25;;
35126;SDS011;21300;52.006;5.798;2022-09-03T02:39:19;2.63;;;1.20;;
35126;SDS011;21300;52.006;5.798;2022-09-03T02:41:49;2.50;;;1.30;;
35126;SDS011;21300;52.006;5.798;2022-09-03T02:44:28;4.90;;;1.33;;
35126;SDS011;21300;52.006;5.798;2022-09-03T02:46:58;4.30;;;1.27;;
35126;SDS011;21300;52.006;5.798;2022-09-03T02:49:25;3.10;;;1.17;;
35126;SDS011;21300;52.006;5.798;2022-09-03T02:51:56;3.55;;;1.20;;
35126;SDS011;21300;52.006;5.798;2022-09-03T02:54:24;5.20;;;1.63;;
35126;SDS011;21300;52.006;5.798;2022-09-03T02:56:52;4.38;;;1.23;;
35126;SDS011;21300;52.006;5.798;2022-09-03T02:59:18;3.03;;;1.13;;
35126;SDS011;21300;52.006;5.798;2022-09-03T03:01:43;2.92;;;1.23;;
35126;SDS011;21300;52.006;5.798;2022-09-03T03:04:09;3.60;;;1.20;;
35126;SDS011;21300;52.006;5.798;2022-09-03T03:06:35;3.00;;;1.40;;
35126;SDS011;21300;52.006;5.798;2022-09-03T03:09:00;2.20;;;1.08;;
35126;SDS011;21300;52.006;5.798;2022-09-03T03:11:29;4.40;;;1.05;;
35126;SDS011;21300;52.006;5.798;2022-09-03T03:13:55;2.72;;;1.27;;
35126;SDS011;21300;52.006;5.798;2022-09-03T03:16:21;2.03;;;1.00;;
35126;SDS011;21300;52.006;5.798;2022-09-03T03:18:47;3.47;;;1.30;;
35126;SDS011;21300;52.006;5.798;2022-09-03T03:21:16;3.80;;;1.30;;
35126;SDS011;21300;52.006;5.798;2022-09-03T03:23:42;7.55;;;1.75;;
35126;SDS011;21300;52.006;5.798;2022-09-03T03:26:09;3.30;;;1.17;;
35126;SDS011;21300;52.006;5.798;2022-09-03T03:28:37;2.58;;;1.30;;
35126;SDS011;21300;52.006;5.798;2022-09-03T03:31:07;3.17;;;1.20;;
35126;SDS011;21300;52.006;5.798;2022-09-03T03:33:34;2.58;;;1.23;;
35126;SDS011;21300;52.006;5.798;2022-09-03T03:36:33;4.20;;;1.40;;
35126;SDS011;21300;52.006;5.798;2022-09-03T03:38:53;2.45;;;1.20;;
35126;SDS011;21300;52.006;5.798;2022-09-03T03:41:21;1.90;;;1.40;;
35126;SDS011;21300;52.006;5.798;2022-09-03T03:43:55;2.25;;;1.20;;
35126;SDS011;21300;52.006;5.798;2022-09-03T03:46:23;4.00;;;1.20;;
35126;SDS011;21300;52.006;5.798;2022-09-03T03:48:50;5.25;;;1.27;;
35126;SDS011;21300;52.006;5.798;2022-09-03T03:51:17;2.60;;;1.30;;
35126;SDS011;21300;52.006;5.798;2022-09-03T03:53:43;2.17;;;1.05;;
35126;SDS011;21300;52.006;5.798;2022-09-03T03:56:10;2.70;;;1.27;;
35126;SDS011;21300;52.006;5.798;2022-09-03T03:58:39;3.72;;;1.23;;
35126;SDS011;21300;52.006;5.798;2022-09-03T04:01:14;3.00;;;1.50;;
35126;SDS011;21300;52.006;5.798;2022-09-03T04:03:41;2.08;;;1.20;;
35126;SDS011;21300;52.006;5.798;2022-09-03T04:06:07;2.80;;;1.48;;
35126;SDS011;21300;52.006;5.798;2022-09-03T04:08:35;1.80;;;0.90;;
35126;SDS011;21300;52.006;5.798;2022-09-03T04:11:03;2.10;;;1.10;;
35126;SDS011;21300;52.006;5.798;2022-09-03T04:16:15;4.28;;;1.48;;
35126;SDS011;21300;52.006;5.798;2022-09-03T04:18:45;3.40;;;1.20;;
35126;SDS011;21300;52.006;5.798;2022-09-03T04:21:13;4.60;;;1.52;;
35126;SDS011;21300;52.006;5.798;2022-09-03T04:23:44;3.35;;;1.27;;
35126;SDS011;21300;52.006;5.798;2022-09-03T04:26:12;2.92;;;1.15;;
35126;SDS011;21300;52.006;5.798;2022-09-03T04:28:40;4.88;;;1.20;;
35126;SDS011;21300;52.006;5.798;2022-09-03T04:31:07;8.55;;;1.45;;
35126;SDS011;21300;52.006;5.798;2022-09-03T04:33:35;7.38;;;1.38;;
35126;SDS011;21300;52.006;5.798;2022-09-03T04:36:04;1.75;;;1.02;;
35126;SDS011;21300;52.006;5.798;2022-09-03T04:38:33;3.83;;;1.52;;
35126;SDS011;21300;52.006;5.798;2022-09-03T04:40:59;5.78;;;1.30;;
35126;SDS011;21300;52.006;5.798;2022-09-03T04:43:25;4.53;;;1.30;;
35126;SDS011;21300;52.006;5.798;2022-09-03T04:45:55;12.02;;;1.85;;
35126;SDS011;21300;52.006;5.798;2022-09-03T04:48:24;2.40;;;1.00;;
35126;SDS011;21300;52.006;5.798;2022-09-03T04:50:54;6.20;;;1.30;;
35126;SDS011;21300;52.006;5.798;2022-09-03T04:53:30;2.20;;;1.20;;
35126;SDS011;21300;52.006;5.798;2022-09-03T04:55:59;4.30;;;1.23;;
35126;SDS011;21300;52.006;5.798;2022-09-03T04:58:25;2.22;;;1.23;;
35126;SDS011;21300;52.006;5.798;2022-09-03T05:00:51;5.28;;;1.27;;
35126;SDS011;21300;52.006;5.798;2022-09-03T05:03:17;2.92;;;1.60;;
35126;SDS011;21300;52.006;5.798;2022-09-03T05:05:50;4.47;;;1.13;;
35126;SDS011;21300;52.006;5.798;2022-09-03T05:08:16;4.38;;;1.30;;
35126;SDS011;21300;52.006;5.798;2022-09-03T05:10:42;6.97;;;1.20;;
35126;SDS011;21300;52.006;5.798;2022-09-03T05:13:08;5.47;;;1.30;;
35126;SDS011;21300;52.006;5.798;2022-09-03T05:15:33;4.38;;;1.10;;
35126;SDS011;21300;52.006;5.798;2022-09-03T05:17:59;2.45;;;1.20;;
35126;SDS011;21300;52.006;5.798;2022-09-03T05:20:28;3.15;;;1.08;;
35126;SDS011;21300;52.006;5.798;2022-09-03T05:22:56;3.28;;;1.25;;
35126;SDS011;21300;52.006;5.798;2022-09-03T05:25:22;4.00;;;1.08;;
35126;SDS011;21300;52.006;5.798;2022-09-03T05:27:48;2.50;;;1.20;;
35126;SDS011;21300;52.006;5.798;2022-09-03T05:30:14;5.25;;;2.00;;
35126;SDS011;21300;52.006;5.798;2022-09-03T05:32:40;1.73;;;0.95;;
35126;SDS011;21300;52.006;5.798;2022-09-03T05:35:06;5.20;;;1.30;;
35126;SDS011;21300;52.006;5.798;2022-09-03T05:37:33;2.58;;;1.20;;
35126;SDS011;21300;52.006;5.798;2022-09-03T05:39:58;3.22;;;1.00;;
35126;SDS011;21300;52.006;5.798;2022-09-03T05:42:24;4.60;;;1.02;;
35126;SDS011;21300;52.006;5.798;2022-09-03T05:44:51;1.40;;;1.00;;
35126;SDS011;21300;52.006;5.798;2022-09-03T05:47:17;4.22;;;1.13;;
35126;SDS011;21300;52.006;5.798;2022-09-03T05:49:42;5.47;;;1.45;;
35126;SDS011;21300;52.006;5.798;2022-09-03T05:52:08;2.70;;;1.20;;
35126;SDS011;21300;52.006;5.798;2022-09-03T05:54:34;3.30;;;1.10;;
35126;SDS011;21300;52.006;5.798;2022-09-03T05:56:59;6.18;;;1.30;;
35126;SDS011;21300;52.006;5.798;2022-09-03T05:59:25;3.60;;;1.30;;
35126;SDS011;21300;52.006;5.798;2022-09-03T06:01:51;2.28;;;1.27;;
35126;SDS011;21300;52.006;5.798;2022-09-03T06:04:35;2.75;;;1.10;;
35126;SDS011;21300;52.006;5.798;2022-09-03T06:07:01;2.72;;;1.35;;
35126;SDS011;21300;52.006;5.798;2022-09-03T06:09:26;3.08;;;1.30;;
35126;SDS011;21300;52.006;5.798;2022-09-03T06:11:52;2.17;;;1.13;;
35126;SDS011;21300;52.006;5.798;2022-09-03T06:14:18;2.45;;;1.00;;
35126;SDS011;21300;52.006;5.798;2022-09-03T06:16:45;1.92;;;1.08;;
35126;SDS011;21300;52.006;5.798;2022-09-03T06:19:16;3.00;;;1.33;;
35126;SDS011;21300;52.006;5.798;2022-09-03T06:21:42;4.85;;;1.10;;
35126;SDS011;21300;52.006;5.798;2022-09-03T06:24:19;1.77;;;1.10;;
35126;SDS011;21300;52.006;5.798;2022-09-03T06:26:47;4.43;;;1.00;;
35126;SDS011;21300;52.006;5.798;2022-09-03T06:29:13;3.50;;;1.00;;
35126;SDS011;21300;52.006;5.798;2022-09-03T06:31:39;4.18;;;1.02;;
35126;SDS011;21300;52.006;5.798;2022-09-03T06:34:05;2.30;;;0.88;;
35126;SDS011;21300;52.006;5.798;2022-09-03T06:36:31;5.47;;;1.40;;
35126;SDS011;21300;52.006;5.798;2022-09-03T06:38:57;4.30;;;1.17;;
35126;SDS011;21300;52.006;5.798;2022-09-03T06:41:24;2.97;;;1.05;;
35126;SDS011;21300;52.006;5.798;2022-09-03T06:43:52;5.32;;;1.10;;
35126;SDS011;21300;52.006;5.798;2022-09-03T06:46:27;6.78;;;1.23;;
35126;SDS011;21300;52.006;5.798;2022-09-03T06:48:54;3.33;;;1.20;;
35126;SDS011;21300;52.006;5.798;2022-09-03T06:51:20;2.40;;;1.08;;
35126;SDS011;21300;52.006;5.798;2022-09-03T06:53:48;4.85;;;1.13;;
35126;SDS011;21300;52.006;5.798;2022-09-03T06:56:19;4.90;;;1.08;;
35126;SDS011;21300;52.006;5.798;2022-09-03T06:58:50;2.90;;;1.23;;
35126;SDS011;21300;52.006;5.798;2022-09-03T07:01:29;2.80;;;1.33;;
35126;SDS011;21300;52.006;5.798;2022-09-03T07:03:57;2.13;;;1.13;;
35126;SDS011;21300;52.006;5.798;2022-09-03T07:06:25;2.72;;;1.10;;
35126;SDS011;21300;52.006;5.798;2022-09-03T07:08:53;4.22;;;1.23;;
35126;SDS011;21300;52.006;5.798;2022-09-03T07:11:20;4.68;;;1.10;;
35126;SDS011;21300;52.006;5.798;2022-09-03T07:13:48;6.18;;;1.00;;
35126;SDS011;21300;52.006;5.798;2022-09-03T07:16:17;4.60;;;1.35;;
35126;SDS011;21300;52.006;5.798;2022-09-03T07:18:44;3.17;;;1.40;;
35126;SDS011;21300;52.006;5.798;2022-09-03T07:21:17;5.13;;;1.30;;
35126;SDS011;21300;52.006;5.798;2022-09-03T07:23:51;1.88;;;1.35;;
35126;SDS011;21300;52.006;5.798;2022-09-03T07:26:18;1.90;;;1.52;;
35126;SDS011;21300;52.006;5.798;2022-09-03T07:28:56;4.68;;;1.60;;
35126;SDS011;21300;52.006;5.798;2022-09-03T07:31:24;2.92;;;1.80;;
35126;SDS011;21300;52.006;5.798;2022-09-03T07:33:52;3.58;;;1.20;;
35126;SDS011;21300;52.006;5.798;2022-09-03T07:36:22;3.25;;;1.45;;
35126;SDS011;21300;52.006;5.798;2022-09-03T07:38:48;3.17;;;1.40;;
35126;SDS011;21300;52.006;5.798;2022-09-03T07:41:14;4.82;;;1.48;;
35126;SDS011;21300;52.006;5.798;2022-09-03T07:43:44;3.38;;;1.08;;
35126;SDS011;21300;52.006;5.798;2022-09-03T07:46:14;1.88;;;1.05;;
35126;SDS011;21300;52.006;5.798;2022-09-03T07:48:50;2.63;;;1.30;;
35126;SDS011;21300;52.006;5.798;2022-09-03T07:51:18;3.15;;;1.30;;
35126;SDS011;21300;52.006;5.798;2022-09-03T07:53:45;4.43;;;1.23;;
35126;SDS011;21300;52.006;5.798;2022-09-03T07:56:12;5.28;;;1.20;;
35126;SDS011;21300;52.006;5.798;2022-09-03T07:58:39;4.88;;;1.40;;
35126;SDS011;21300;52.006;5.798;2022-09-03T08:01:10;4.85;;;1.52;;
35126;SDS011;21300;52.006;5.798;2022-09-03T08:03:37;2.33;;;1.25;;
35126;SDS011;21300;52.006;5.798;2022-09-03T08:06:06;3.67;;;1.30;;
35126;SDS011;21300;52.006;5.798;2022-09-03T08:08:33;3.22;;;1.30;;
35126;SDS011;21300;52.006;5.798;2022-09-03T08:11:03;4.43;;;1.10;;
35126;SDS011;21300;52.006;5.798;2022-09-03T08:13:35;3.42;;;1.33;;
35126;SDS011;21300;52.006;5.798;2022-09-03T08:16:05;6.30;;;1.23;;
35126;SDS011;21300;52.006;5.798;2022-09-03T08:18:32;3.95;;;1.00;;
35126;SDS011;21300;52.006;5.798;2022-09-03T08:21:02;4.65;;;1.30;;
35126;SDS011;21300;52.006;5.798;2022-09-03T08:23:31;3.28;;;1.15;;
35126;SDS011;21300;52.006;5.798;2022-09-03T08:25:58;4.20;;;1.60;;
35126;SDS011;21300;52.006;5.798;2022-09-03T08:28:24;4.72;;;1.60;;
35126;SDS011;21300;52.006;5.798;2022-09-03T08:30:50;3.15;;;1.42;;
35126;SDS011;21300;52.006;5.798;2022-09-03T08:33:15;2.90;;;1.30;;
35126;SDS011;21300;52.006;5.798;2022-09-03T08:35:41;4.30;;;2.10;;
35126;SDS011;21300;52.006;5.798;2022-09-03T08:38:06;4.95;;;1.73;;
35126;SDS011;21300;52.006;5.798;2022-09-03T08:40:33;4.63;;;1.60;;
35126;SDS011;21300;52.006;5.798;2022-09-03T08:45:48;4.13;;;1.30;;
35126;SDS011;21300;52.006;5.798;2022-09-03T08:48:17;2.40;;;1.23;;
35126;SDS011;21300;52.006;5.798;2022-09-03T08:50:47;3.05;;;1.33;;
35126;SDS011;21300;52.006;5.798;2022-09-03T08:56:02;5.72;;;1.23;;
35126;SDS011;21300;52.006;5.798;2022-09-03T08:58:35;4.90;;;1.15;;
35126;SDS011;21300;52.006;5.798;2022-09-03T09:23:02;1.80;;;1.10;;
35126;SDS011;21300;52.006;5.798;2022-09-03T09:25:30;4.60;;;1.10;;
35126;SDS011;21300;52.006;5.798;2022-09-03T09:28:05;4.05;;;1.42;;
35126;SDS011;21300;52.006;5.798;2022-09-03T09:30:47;3.67;;;1.38;;
35126;SDS011;21300;52.006;5.798;2022-09-03T09:33:15;3.60;;;1.70;;
35126;SDS011;21300;52.006;5.798;2022-09-03T09:35:44;4.10;;;1.40;;
35126;SDS011;21300;52.006;5.798;2022-09-03T09:38:11;4.22;;;1.50;;
35126;SDS011;21300;52.006;5.798;2022-09-03T09:40:37;2.60;;;1.25;;
35126;SDS011;21300;52.006;5.798;2022-09-03T09:43:13;5.13;;;1.40;;
35126;SDS011;21300;52.006;5.798;2022-09-03T09:45:47;6.03;;;1.30;;
35126;SDS011;21300;52.006;5.798;2022-09-03T09:48:33;4.30;;;1.33;;
35126;SDS011;21300;52.006;5.798;2022-09-03T09:51:12;4.35;;;1.60;;
35126;SDS011;21300;52.006;5.798;2022-09-03T09:53:42;3.30;;;1.40;;
35126;SDS011;21300;52.006;5.798;2022-09-03T09:56:18;3.90;;;1.20;;
35126;SDS011;21300;52.006;5.798;2022-09-03T09:58:45;2.95;;;1.20;;
35126;SDS011;21300;52.006;5.798;2022-09-03T10:01:20;6.75;;;1.50;;
35126;SDS011;21300;52.006;5.798;2022-09-03T10:06:52;4.75;;;1.17;;
35126;SDS011;21300;52.006;5.798;2022-09-03T10:09:20;4.00;;;1.10;;
35126;SDS011;21300;52.006;5.798;2022-09-03T10:17:34;2.00;;;1.00;;
35126;SDS011;21300;52.006;5.798;2022-09-03T10:20:10;3.33;;;1.17;;
35126;SDS011;21300;52.006;5.798;2022-09-03T10:26:24;1.98;;;1.15;;
35126;SDS011;21300;52.006;5.798;2022-09-03T10:28:38;3.00;;;0.95;;
35126;SDS011;21300;52.006;5.798;2022-09-03T10:33:46;3.15;;;1.30;;
35126;SDS011;21300;52.006;5.798;2022-09-03T10:44:44;8.27;;;1.45;;
35126;SDS011;21300;52.006;5.798;2022-09-03T10:47:38;8.27;;;1.20;;
35126;SDS011;21300;52.006;5.798;2022-09-03T10:55:51;5.78;;;1.30;;
35126;SDS011;21300;52.006;5.798;2022-09-03T11:01:16;4.38;;;1.40;;
35126;SDS011;21300;52.006;5.798;2022-09-03T11:06:27;3.85;;;1.17;;
35126;SDS011;21300;52.006;5.798;2022-09-03T11:08:59;4.53;;;1.27;;
35126;SDS011;21300;52.006;5.798;2022-09-03T11:11:37;2.15;;;1.25;;
35126;SDS011;21300;52.006;5.798;2022-09-03T11:14:09;2.88;;;1.20;;
35126;SDS011;21300;52.006;5.798;2022-09-03T11:16:38;2.35;;;1.02;;
35126;SDS011;21300;52.006;5.798;2022-09-03T11:19:12;2.78;;;1.40;;
35126;SDS011;21300;52.006;5.798;2022-09-03T11:21:42;3.72;;;1.20;;
35126;SDS011;21300;52.006;5.798;2022-09-03T11:26:37;3.40;;;1.10;;
35126;SDS011;21300;52.006;5.798;2022-09-03T11:31:41;6.43;;;1.60;;
35126;SDS011;21300;52.006;5.798;2022-09-03T11:40:02;4.22;;;1.00;;
35126;SDS011;21300;52.006;5.798;2022-09-03T11:42:33;3.00;;;1.10;;
35126;SDS011;21300;52.006;5.798;2022-09-03T11:47:48;2.45;;;1.20;;
35126;SDS011;21300;52.006;5.798;2022-09-03T11:50:17;4.30;;;1.25;;
35126;SDS011;21300;52.006;5.798;2022-09-03T11:52:50;3.88;;;1.17;;
35126;SDS011;21300;52.006;5.798;2022-09-03T11:55:28;2.33;;;1.45;;
35126;SDS011;21300;52.006;5.798;2022-09-03T11:57:56;2.45;;;1.33;;
35126;SDS011;21300;52.006;5.798;2022-09-03T12:00:22;2.60;;;1.27;;
35126;SDS011;21300;52.006;5.798;2022-09-03T12:02:50;5.28;;;1.33;;
35126;SDS011;21300;52.006;5.798;2022-09-03T12:05:32;5.55;;;1.27;;
35126;SDS011;21300;52.006;5.798;2022-09-03T12:14:39;2.03;;;1.17;;
35126;SDS011;21300;52.006;5.798;2022-09-03T12:17:29;3.95;;;1.08;;
35126;SDS011;21300;52.006;5.798;2022-09-03T12:20:42;4.43;;;1.13;;
35126;SDS011;21300;52.006;5.798;2022-09-03T12:23:09;4.93;;;1.25;;
35126;SDS011;21300;52.006;5.798;2022-09-03T12:25:45;2.10;;;1.50;;
35126;SDS011;21300;52.006;5.798;2022-09-03T12:28:11;4.00;;;1.20;;
35126;SDS011;21300;52.006;5.798;2022-09-03T12:30:42;5.10;;;1.10;;
35126;SDS011;21300;52.006;5.798;2022-09-03T12:33:08;2.90;;;1.20;;
35126;SDS011;21300;52.006;5.798;2022-09-03T12:35:37;5.13;;;1.00;;
35126;SDS011;21300;52.006;5.798;2022-09-03T12:38:02;3.17;;;1.27;;
35126;SDS011;21300;52.006;5.798;2022-09-03T12:40:29;4.80;;;1.00;;
35126;SDS011;21300;52.006;5.798;2022-09-03T12:42:59;2.42;;;1.45;;
35126;SDS011;21300;52.006;5.798;2022-09-03T12:45:46;2.75;;;1.10;;
35126;SDS011;21300;52.006;5.798;2022-09-03T12:48:15;3.45;;;1.52;;
35126;SDS011;21300;52.006;5.798;2022-09-03T12:50:44;2.38;;;1.13;;
35126;SDS011;21300;52.006;5.798;2022-09-03T12:53:12;6.40;;;1.45;;
35126;SDS011;21300;52.006;5.798;2022-09-03T12:58:16;4.40;;;1.20;;
35126;SDS011;21300;52.006;5.798;2022-09-03T13:03:49;5.13;;;1.48;;
35126;SDS011;21300;52.006;5.798;2022-09-03T13:06:22;2.33;;;1.17;;
35126;SDS011;21300;52.006;5.798;2022-09-03T13:08:53;1.50;;;1.10;;
35126;SDS011;21300;52.006;5.798;2022-09-03T13:11:28;5.15;;;1.33;;
35126;SDS011;21300;52.006;5.798;2022-09-03T13:14:04;2.55;;;1.10;;
35126;SDS011;21300;52.006;5.798;2022-09-03T13:27:51;2.10;;;1.40;;
35126;SDS011;21300;52.006;5.798;2022-09-03T13:30:19;10.05;;;1.55;;
35126;SDS011;21300;52.006;5.798;2022-09-03T13:32:52;5.88;;;1.35;;
35126;SDS011;21300;52.006;5.798;2022-09-03T13:37:54;3.88;;;2.28;;
35126;SDS011;21300;52.006;5.798;2022-09-03T13:40:34;3.05;;;1.17;;
35126;SDS011;21300;52.006;5.798;2022-09-03T13:43:17;2.67;;;1.20;;
35126;SDS011;21300;52.006;5.798;2022-09-03T13:48:42;3.78;;;1.60;;
35126;SDS011;21300;52.006;5.798;2022-09-03T13:51:35;2.00;;;1.40;;
35126;SDS011;21300;52.006;5.798;2022-09-03T13:56:52;3.03;;;1.80;;
35126;SDS011;21300;52.006;5.798;2022-09-03T14:02:10;5.03;;;1.70;;
35126;SDS011;21300;52.006;5.798;2022-09-03T14:07:38;5.68;;;1.77;;
35126;SDS011;21300;52.006;5.798;2022-09-03T14:15:35;4.13;;;1.70;;
35126;SDS011;21300;52.006;5.798;2022-09-03T14:21:04;4.63;;;1.90;;
35126;SDS011;21300;52.006;5.798;2022-09-03T14:23:50;2.92;;;1.63;;
35126;SDS011;21300;52.006;5.798;2022-09-03T14:26:31;4.38;;;1.60;;
35126;SDS011;21300;52.006;5.798;2022-09-03T14:28:59;5.43;;;1.85;;
35126;SDS011;21300;52.006;5.798;2022-09-03T14:40:20;5.40;;;1.90;;
35126;SDS011;21300;52.006;5.798;2022-09-03T14:51:16;2.60;;;1.30;;
35126;SDS011;21300;52.006;5.798;2022-09-03T15:00:00;3.78;;;1.70;;
35126;SDS011;21300;52.006;5.798;2022-09-03T15:08:15;4.57;;;1.80;;
35126;SDS011;21300;52.006;5.798;2022-09-03T15:11:02;3.78;;;1.73;;
35126;SDS011;21300;52.006;5.798;2022-09-03T15:13:45;4.05;;;1.52;;
35126;SDS011;21300;52.006;5.798;2022-09-03T15:16:28;4.43;;;1.58;;
35126;SDS011;21300;52.006;5.798;2022-09-03T15:18:59;5.57;;;1.77;;
35126;SDS011;21300;52.006;5.798;2022-09-03T15:29:28;5.15;;;1.98;;
35126;SDS011;21300;52.006;5.798;2022-09-03T15:34:52;4.65;;;1.70;;
35126;SDS011;21300;52.006;5.798;2022-09-03T15:40:27;4.78;;;1.63;;
35126;SDS011;21300;52.006;5.798;2022-09-03T15:43:09;4.30;;;1.75;;
35126;SDS011;21300;52.006;5.798;2022-09-03T15:48:31;6.82;;;1.77;;
35126;SDS011;21300;52.006;5.798;2022-09-03T15:51:15;4.80;;;1.60;;
35126;SDS011;21300;52.006;5.798;2022-09-03T15:54:01;2.60;;;1.75;;
35126;SDS011;21300;52.006;5.798;2022-09-03T15:56:39;3.45;;;1.60;;
35126;SDS011;21300;52.006;5.798;2022-09-03T15:59:14;3.63;;;1.50;;
35126;SDS011;21300;52.006;5.798;2022-09-03T16:01:56;2.45;;;1.63;;
35126;SDS011;21300;52.006;5.798;2022-09-03T16:10:40;2.67;;;1.60;;
35126;SDS011;21300;52.006;5.798;2022-09-03T16:16:06;2.35;;;1.55;;
35126;SDS011;21300;52.006;5.798;2022-09-03T16:18:38;4.00;;;1.75;;
35126;SDS011;21300;52.006;5.798;2022-09-03T16:21:24;4.28;;;1.73;;
35126;SDS011;21300;52.006;5.798;2022-09-03T16:29:00;2.58;;;1.40;;
35126;SDS011;21300;52.006;5.798;2022-09-03T16:31:36;3.67;;;1.50;;
35126;SDS011;21300;52.006;5.798;2022-09-03T16:34:12;2.45;;;1.63;;
35126;SDS011;21300;52.006;5.798;2022-09-03T16:42:03;2.75;;;1.50;;
35126;SDS011;21300;52.006;5.798;2022-09-03T17:06:19;3.08;;;1.60;;
35126;SDS011;21300;52.006;5.798;2022-09-03T17:09:05;3.15;;;1.50;;
35126;SDS011;21300;52.006;5.798;2022-09-03T17:12:09;4.00;;;1.83;;
35126;SDS011;21300;52.006;5.798;2022-09-03T17:15:15;4.00;;;1.90;;
35126;SDS011;21300;52.006;5.798;2022-09-03T17:23:47;3.20;;;1.92;;
35126;SDS011;21300;52.006;5.798;2022-09-03T17:26:27;3.97;;;1.95;;
35126;SDS011;21300;52.006;5.798;2022-09-03T17:28:56;4.07;;;2.35;;
35126;SDS011;21300;52.006;5.798;2022-09-03T17:31:46;8.07;;;4.10;;
35126;SDS011;21300;52.006;5.798;2022-09-03T17:43:25;3.67;;;2.53;;
35126;SDS011;21300;52.006;5.798;2022-09-03T17:48:54;4.40;;;1.92;;
35126;SDS011;21300;52.006;5.798;2022-09-03T17:54:23;4.80;;;2.53;;
35126;SDS011;21300;52.006;5.798;2022-09-03T17:57:20;3.80;;;2.50;;
35126;SDS011;21300;52.006;5.798;2022-09-03T18:00:02;7.75;;;2.88;;
35126;SDS011;21300;52.006;5.798;2022-09-03T18:02:31;4.07;;;2.67;;
35126;SDS011;21300;52.006;5.798;2022-09-03T18:07:42;3.33;;;2.17;;
35126;SDS011;21300;52.006;5.798;2022-09-03T18:10:40;4.28;;;2.28;;
35126;SDS011;21300;52.006;5.798;2022-09-03T18:13:11;4.53;;;2.25;;
35126;SDS011;21300;52.006;5.798;2022-09-03T18:15:48;3.63;;;2.30;;
35126;SDS011;21300;52.006;5.798;2022-09-03T18:18:24;4.25;;;2.40;;
35126;SDS011;21300;52.006;5.798;2022-09-03T18:20:54;3.65;;;2.30;;
35126;SDS011;21300;52.006;5.798;2022-09-03T18:30:13;6.00;;;2.58;;
35126;SDS011;21300;52.006;5.798;2022-09-03T18:32:58;4.82;;;2.38;;
35126;SDS011;21300;52.006;5.798;2022-09-03T18:35:43;6.05;;;2.42;;
35126;SDS011;21300;52.006;5.798;2022-09-03T18:38:37;6.93;;;2.70;;
35126;SDS011;21300;52.006;5.798;2022-09-03T18:50:44;5.57;;;2.83;;
35126;SDS011;21300;52.006;5.798;2022-09-03T18:53:55;5.05;;;2.42;;
35126;SDS011;21300;52.006;5.798;2022-09-03T18:57:31;6.60;;;2.65;;
35126;SDS011;21300;52.006;5.798;2022-09-03T19:00:38;4.00;;;2.30;;
35126;SDS011;21300;52.006;5.798;2022-09-03T19:03:38;5.68;;;2.70;;
35126;SDS011;21300;52.006;5.798;2022-09-03T19:06:37;3.78;;;2.28;;
35126;SDS011;21300;52.006;5.798;2022-09-03T19:15:23;8.45;;;3.00;;
35126;SDS011;21300;52.006;5.798;2022-09-03T19:23:59;5.15;;;2.75;;
35126;SDS011;21300;52.006;5.798;2022-09-03T19:26:53;5.65;;;2.70;;
35126;SDS011;21300;52.006;5.798;2022-09-03T19:29:51;5.38;;;3.13;;
35126;SDS011;21300;52.006;5.798;2022-09-03T19:32:48;6.70;;;2.97;;
35126;SDS011;21300;52.006;5.798;2022-09-03T19:42:09;5.25;;;3.20;;
35126;SDS011;21300;52.006;5.798;2022-09-03T19:45:04;7.93;;;2.80;;
35126;SDS011;21300;52.006;5.798;2022-09-03T19:51:25;9.30;;;3.25;;
35126;SDS011;21300;52.006;5.798;2022-09-03T19:54:03;7.10;;;3.50;;
35126;SDS011;21300;52.006;5.798;2022-09-03T19:56:51;12.23;;;3.45;;
35126;SDS011;21300;52.006;5.798;2022-09-03T19:59:40;5.38;;;3.90;;
35126;SDS011;21300;52.006;5.798;2022-09-03T20:02:27;8.45;;;3.90;;
35126;SDS011;21300;52.006;5.798;2022-09-03T20:05:20;8.55;;;4.57;;
35126;SDS011;21300;52.006;5.798;2022-09-03T20:08:06;6.55;;;5.85;;
35126;SDS011;21300;52.006;5.798;2022-09-03T20:10:51;10.88;;;6.40;;
35126;SDS011;21300;52.006;5.798;2022-09-03T20:13:20;16.25;;;8.68;;
35126;SDS011;21300;52.006;5.798;2022-09-03T20:20:55;25.63;;;14.80;;
35126;SDS011;21300;52.006;5.798;2022-09-03T20:23:41;24.80;;;18.88;;
35126;SDS011;21300;52.006;5.798;2022-09-03T20:31:22;20.75;;;13.93;;
35126;SDS011;21300;52.006;5.798;2022-09-03T20:39:48;17.67;;;6.53;;
35126;SDS011;21300;52.006;5.798;2022-09-03T20:45:27;9.70;;;4.53;;
35126;SDS011;21300;52.006;5.798;2022-09-03T20:48:08;12.60;;;4.00;;
35126;SDS011;21300;52.006;5.798;2022-09-03T20:50:51;4.88;;;3.45;;
35126;SDS011;21300;52.006;5.798;2022-09-03T21:04:30;8.60;;;3.88;;
35126;SDS011;21300;52.006;5.798;2022-09-03T21:12:58;9.60;;;3.63;;
35126;SDS011;21300;52.006;5.798;2022-09-03T21:18:15;6.90;;;3.30;;
35126;SDS011;21300;52.006;5.798;2022-09-03T21:21:01;5.40;;;3.10;;
35126;SDS011;21300;52.006;5.798;2022-09-03T21:23:34;6.32;;;3.30;;
35126;SDS011;21300;52.006;5.798;2022-09-03T21:26:28;7.43;;;3.67;;